sensor_id;sensor_type;location;lat;lon;timestamp;pressure;altitude;pressure_sealevel;temperature;humidity
74310;BME280;62722;51.142;17.052;2022-12-10T00:01:41;99433.59;;;1.38;93.28
74310;BME280;62722;51.142;17.052;2022-12-10T00:04:10;99426.59;;;1.40;93.79
74310;BME280;62722;51.142;17.052;2022-12-10T00:06:39;99432.75;;;1.37;93.92
74310;BME280;62722;51.142;17.052;2022-12-10T00:09:09;99429.38;;;1.35;93.31
74310;BME280;62722;51.142;17.052;2022-12-10T00:11:38;99424.03;;;1.38;93.74
74310;BME280;62722;51.142;17.052;2022-12-10T00:14:05;99428.38;;;1.38;93.91
74310;BME280;62722;51.142;17.052;2022-12-10T00:16:33;99423.19;;;1.38;94.17
74310;BME280;62722;51.142;17.052;2022-12-10T00:19:03;99423.84;;;1.43;93.12
74310;BME280;62722;51.142;17.052;2022-12-10T00:21:33;99425.97;;;1.33;93.49
74310;BME280;62722;51.142;17.052;2022-12-10T00:24:01;99428.66;;;1.32;93.96
74310;BME280;62722;51.142;17.052;2022-12-10T00:26:30;99426.81;;;1.34;94.17
74310;BME280;62722;51.142;17.052;2022-12-10T00:28:57;99428.53;;;1.35;93.51
74310;BME280;62722;51.142;17.052;2022-12-10T00:31:27;99430.09;;;1.39;93.13
74310;BME280;62722;51.142;17.052;2022-12-10T00:33:55;99428.25;;;1.41;93.24
74310;BME280;62722;51.142;17.052;2022-12-10T00:36:27;99418.25;;;1.32;93.45
74310;BME280;62722;51.142;17.052;2022-12-10T00:38:54;99421.75;;;1.31;93.79
74310;BME280;62722;51.142;17.052;2022-12-10T00:41:22;99416.44;;;1.34;93.90
74310;BME280;62722;51.142;17.052;2022-12-10T00:43:49;99423.69;;;1.26;93.39
74310;BME280;62722;51.142;17.052;2022-12-10T00:46:18;99424.53;;;1.26;94.24
74310;BME280;62722;51.142;17.052;2022-12-10T00:48:45;99422.25;;;1.19;94.06
74310;BME280;62722;51.142;17.052;2022-12-10T00:51:15;99424.66;;;1.23;93.67
74310;BME280;62722;51.142;17.052;2022-12-10T00:53:45;99413.63;;;1.18;93.95
74310;BME280;62722;51.142;17.052;2022-12-10T00:56:18;99417.72;;;1.24;93.90
74310;BME280;62722;51.142;17.052;2022-12-10T00:58:46;99423.69;;;1.26;93.94
74310;BME280;62722;51.142;17.052;2022-12-10T01:01:17;99428.06;;;1.25;93.91
74310;BME280;62722;51.142;17.052;2022-12-10T01:03:45;99425.47;;;1.25;93.83
74310;BME280;62722;51.142;17.052;2022-12-10T01:06:15;99428.13;;;1.24;93.96
74310;BME280;62722;51.142;17.052;2022-12-10T01:08:45;99427.34;;;1.22;93.58
74310;BME280;62722;51.142;17.052;2022-12-10T01:11:14;99419.41;;;1.25;94.27
74310;BME280;62722;51.142;17.052;2022-12-10T01:13:41;99416.03;;;1.23;94.01
74310;BME280;62722;51.142;17.052;2022-12-10T01:16:11;99426.28;;;1.26;93.69
74310;BME280;62722;51.142;17.052;2022-12-10T01:18:39;99428.72;;;1.30;93.91
74310;BME280;62722;51.142;17.052;2022-12-10T01:21:08;99430.59;;;1.27;93.79
74310;BME280;62722;51.142;17.052;2022-12-10T01:23:37;99425.25;;;1.30;94.27
74310;BME280;62722;51.142;17.052;2022-12-10T01:26:08;99431.13;;;1.35;93.53
74310;BME280;62722;51.142;17.052;2022-12-10T01:28:36;99436.19;;;1.38;93.34
74310;BME280;62722;51.142;17.052;2022-12-10T01:31:08;99429.81;;;1.25;93.83
74310;BME280;62722;51.142;17.052;2022-12-10T01:33:36;99440.84;;;1.30;93.85
74310;BME280;62722;51.142;17.052;2022-12-10T01:36:06;99437.75;;;1.22;93.92
74310;BME280;62722;51.142;17.052;2022-12-10T01:38:33;99448.66;;;1.30;93.72
74310;BME280;62722;51.142;17.052;2022-12-10T01:41:01;99440.09;;;1.28;93.36
74310;BME280;62722;51.142;17.052;2022-12-10T01:43:49;99427.44;;;1.19;94.11
74310;BME280;62722;51.142;17.052;2022-12-10T01:46:17;99445.53;;;1.22;94.29
74310;BME280;62722;51.142;17.052;2022-12-10T01:48:44;99442.81;;;1.25;94.73
74310;BME280;62722;51.142;17.052;2022-12-10T01:51:12;99446.91;;;1.30;93.98
74310;BME280;62722;51.142;17.052;2022-12-10T01:53:40;99439.81;;;1.34;93.34
74310;BME280;62722;51.142;17.052;2022-12-10T01:56:09;99434.63;;;1.34;93.46
74310;BME280;62722;51.142;17.052;2022-12-10T01:58:38;99436.47;;;1.32;94.23
74310;BME280;62722;51.142;17.052;2022-12-10T02:01:09;99426.09;;;1.30;94.00
74310;BME280;62722;51.142;17.052;2022-12-10T02:03:47;99421.31;;;1.21;93.96
74310;BME280;62722;51.142;17.052;2022-12-10T02:06:26;99426.56;;;1.20;93.79
74310;BME280;62722;51.142;17.052;2022-12-10T02:09:04;99421.88;;;1.28;93.87
74310;BME280;62722;51.142;17.052;2022-12-10T02:11:39;99421.88;;;1.28;93.68
74310;BME280;62722;51.142;17.052;2022-12-10T02:14:14;99417.59;;;1.27;93.40
74310;BME280;62722;51.142;17.052;2022-12-10T02:16:47;99428.78;;;1.29;93.46
74310;BME280;62722;51.142;17.052;2022-12-10T02:22:05;99428.38;;;1.18;93.69
74310;BME280;62722;51.142;17.052;2022-12-10T02:24:35;99434.34;;;1.20;93.55
74310;BME280;62722;51.142;17.052;2022-12-10T02:27:06;99434.22;;;1.23;93.77
74310;BME280;62722;51.142;17.052;2022-12-10T02:29:40;99430.13;;;1.17;93.74
74310;BME280;62722;51.142;17.052;2022-12-10T02:32:12;99430.91;;;1.19;93.98
74310;BME280;62722;51.142;17.052;2022-12-10T02:34:42;99433.44;;;1.21;93.98
74310;BME280;62722;51.142;17.052;2022-12-10T02:37:12;99438.34;;;1.28;93.18
74310;BME280;62722;51.142;17.052;2022-12-10T02:39:42;99434.00;;;1.29;93.71
74310;BME280;62722;51.142;17.052;2022-12-10T02:42:12;99434.09;;;1.26;93.39
74310;BME280;62722;51.142;17.052;2022-12-10T02:44:42;99433.00;;;1.31;93.67
74310;BME280;62722;51.142;17.052;2022-12-10T02:47:12;99437.34;;;1.31;93.35
74310;BME280;62722;51.142;17.052;2022-12-10T02:49:40;99442.69;;;1.28;94.11
74310;BME280;62722;51.142;17.052;2022-12-10T02:52:09;99445.28;;;1.28;94.16
74310;BME280;62722;51.142;17.052;2022-12-10T02:54:39;99448.88;;;1.25;93.87
74310;BME280;62722;51.142;17.052;2022-12-10T02:57:13;99447.28;;;1.21;94.02
74310;BME280;62722;51.142;17.052;2022-12-10T02:59:53;99449.03;;;1.21;94.51
74310;BME280;62722;51.142;17.052;2022-12-10T03:02:29;99450.34;;;1.11;93.94
74310;BME280;62722;51.142;17.052;2022-12-10T03:05:03;99448.63;;;1.10;93.99
74310;BME280;62722;51.142;17.052;2022-12-10T03:07:38;99445.13;;;1.11;94.14
74310;BME280;62722;51.142;17.052;2022-12-10T03:10:13;99450.97;;;1.16;94.30
74310;BME280;62722;51.142;17.052;2022-12-10T03:12:43;99450.75;;;1.22;94.09
74310;BME280;62722;51.142;17.052;2022-12-10T03:15:16;99460.94;;;1.26;93.69
74310;BME280;62722;51.142;17.052;2022-12-10T03:17:46;99460.50;;;1.15;93.42
74310;BME280;62722;51.142;17.052;2022-12-10T03:20:15;99462.34;;;1.13;93.86
74310;BME280;62722;51.142;17.052;2022-12-10T03:22:45;99461.50;;;1.13;93.31
74310;BME280;62722;51.142;17.052;2022-12-10T03:25:17;99451.34;;;1.07;93.73
74310;BME280;62722;51.142;17.052;2022-12-10T03:27:47;99458.03;;;1.12;93.40
74310;BME280;62722;51.142;17.052;2022-12-10T03:30:17;99454.91;;;1.04;93.70
74310;BME280;62722;51.142;17.052;2022-12-10T03:32:45;99459.16;;;1.07;94.09
74310;BME280;62722;51.142;17.052;2022-12-10T03:35:13;99462.81;;;1.01;93.77
74310;BME280;62722;51.142;17.052;2022-12-10T03:37:41;99459.50;;;0.97;94.69
74310;BME280;62722;51.142;17.052;2022-12-10T03:40:11;99464.69;;;0.97;94.70
74310;BME280;62722;51.142;17.052;2022-12-10T03:42:39;99460.94;;;1.05;94.26
74310;BME280;62722;51.142;17.052;2022-12-10T03:45:07;99462.41;;;1.12;94.31
74310;BME280;62722;51.142;17.052;2022-12-10T03:47:36;99469.03;;;1.19;93.67
74310;BME280;62722;51.142;17.052;2022-12-10T03:50:03;99459.75;;;1.13;93.49
74310;BME280;62722;51.142;17.052;2022-12-10T03:52:31;99456.25;;;1.14;93.16
74310;BME280;62722;51.142;17.052;2022-12-10T03:54:58;99461.31;;;1.17;92.63
74310;BME280;62722;51.142;17.052;2022-12-10T03:57:25;99460.78;;;1.09;92.48
74310;BME280;62722;51.142;17.052;2022-12-10T03:59:52;99466.94;;;1.07;92.72
74310;BME280;62722;51.142;17.052;2022-12-10T04:02:19;99466.69;;;1.13;92.88
74310;BME280;62722;51.142;17.052;2022-12-10T04:04:48;99462.25;;;1.15;92.24
74310;BME280;62722;51.142;17.052;2022-12-10T04:07:15;99470.00;;;1.16;92.13
74310;BME280;62722;51.142;17.052;2022-12-10T04:09:42;99465.78;;;1.14;92.45
74310;BME280;62722;51.142;17.052;2022-12-10T04:12:09;99476.19;;;1.14;92.29
74310;BME280;62722;51.142;17.052;2022-12-10T04:14:36;99479.69;;;1.13;92.07
74310;BME280;62722;51.142;17.052;2022-12-10T04:17:21;99484.63;;;1.19;91.62
74310;BME280;62722;51.142;17.052;2022-12-10T04:19:50;99471.84;;;1.14;92.06
74310;BME280;62722;51.142;17.052;2022-12-10T04:22:17;99476.41;;;1.08;92.09
74310;BME280;62722;51.142;17.052;2022-12-10T04:25:01;99484.16;;;1.09;92.23
74310;BME280;62722;51.142;17.052;2022-12-10T04:27:46;99489.53;;;1.05;91.98
74310;BME280;62722;51.142;17.052;2022-12-10T04:30:13;99480.88;;;1.04;91.94
74310;BME280;62722;51.142;17.052;2022-12-10T04:32:41;99483.56;;;1.03;91.03
74310;BME280;62722;51.142;17.052;2022-12-10T04:35:10;99486.34;;;0.98;91.59
74310;BME280;62722;51.142;17.052;2022-12-10T04:37:38;99488.25;;;0.93;91.78
74310;BME280;62722;51.142;17.052;2022-12-10T04:40:07;99489.94;;;0.94;92.50
74310;BME280;62722;51.142;17.052;2022-12-10T04:42:35;99488.97;;;0.96;92.71
74310;BME280;62722;51.142;17.052;2022-12-10T04:45:03;99481.88;;;1.02;92.20
74310;BME280;62722;51.142;17.052;2022-12-10T04:47:31;99483.69;;;1.00;91.85
74310;BME280;62722;51.142;17.052;2022-12-10T04:49:58;99482.88;;;0.97;91.53
74310;BME280;62722;51.142;17.052;2022-12-10T04:52:27;99494.28;;;0.93;91.79
74310;BME280;62722;51.142;17.052;2022-12-10T04:54:54;99496.84;;;0.95;92.07
74310;BME280;62722;51.142;17.052;2022-12-10T04:57:21;99498.78;;;0.90;91.46
74310;BME280;62722;51.142;17.052;2022-12-10T04:59:48;99501.50;;;0.87;92.23
74310;BME280;62722;51.142;17.052;2022-12-10T05:02:15;99503.13;;;0.89;92.01
74310;BME280;62722;51.142;17.052;2022-12-10T05:04:42;99500.50;;;0.89;92.11
74310;BME280;62722;51.142;17.052;2022-12-10T05:07:10;99502.81;;;0.97;92.53
74310;BME280;62722;51.142;17.052;2022-12-10T05:09:38;99500.00;;;1.03;91.89
74310;BME280;62722;51.142;17.052;2022-12-10T05:12:08;99503.13;;;1.11;91.71
74310;BME280;62722;51.142;17.052;2022-12-10T05:14:35;99494.50;;;1.11;91.25
74310;BME280;62722;51.142;17.052;2022-12-10T05:17:02;99498.06;;;1.08;91.57
74310;BME280;62722;51.142;17.052;2022-12-10T05:19:29;99495.53;;;1.07;91.30
74310;BME280;62722;51.142;17.052;2022-12-10T05:21:56;99494.56;;;1.09;91.53
74310;BME280;62722;51.142;17.052;2022-12-10T05:24:42;99498.56;;;1.18;90.95
74310;BME280;62722;51.142;17.052;2022-12-10T05:27:10;99510.63;;;1.19;90.82
74310;BME280;62722;51.142;17.052;2022-12-10T05:29:37;99516.78;;;1.16;90.96
74310;BME280;62722;51.142;17.052;2022-12-10T05:32:04;99515.22;;;1.12;90.94
74310;BME280;62722;51.142;17.052;2022-12-10T05:34:31;99511.13;;;1.07;90.91
74310;BME280;62722;51.142;17.052;2022-12-10T05:36:59;99518.13;;;1.05;91.27
74310;BME280;62722;51.142;17.052;2022-12-10T05:39:26;99514.56;;;1.07;91.37
74310;BME280;62722;51.142;17.052;2022-12-10T05:41:55;99515.28;;;1.11;91.61
74310;BME280;62722;51.142;17.052;2022-12-10T05:44:22;99521.09;;;1.17;91.08
74310;BME280;62722;51.142;17.052;2022-12-10T05:46:49;99521.00;;;1.19;90.35
74310;BME280;62722;51.142;17.052;2022-12-10T05:49:16;99520.28;;;1.15;89.82
74310;BME280;62722;51.142;17.052;2022-12-10T05:51:43;99517.66;;;1.17;90.08
74310;BME280;62722;51.142;17.052;2022-12-10T05:54:10;99519.56;;;1.12;90.35
74310;BME280;62722;51.142;17.052;2022-12-10T05:56:38;99517.34;;;1.03;90.28
74310;BME280;62722;51.142;17.052;2022-12-10T05:59:06;99512.31;;;0.98;90.85
74310;BME280;62722;51.142;17.052;2022-12-10T06:01:34;99515.59;;;1.03;90.60
74310;BME280;62722;51.142;17.052;2022-12-10T06:04:03;99505.50;;;0.95;90.67
74310;BME280;62722;51.142;17.052;2022-12-10T06:06:32;99518.47;;;0.95;90.94
74310;BME280;62722;51.142;17.052;2022-12-10T06:09:00;99517.84;;;0.89;91.91
74310;BME280;62722;51.142;17.052;2022-12-10T06:11:27;99514.34;;;0.90;91.97
74310;BME280;62722;51.142;17.052;2022-12-10T06:13:56;99519.63;;;0.88;91.80
74310;BME280;62722;51.142;17.052;2022-12-10T06:16:26;99521.84;;;0.97;91.69
74310;BME280;62722;51.142;17.052;2022-12-10T06:18:54;99516.66;;;0.97;91.64
74310;BME280;62722;51.142;17.052;2022-12-10T06:21:21;99511.84;;;0.88;92.20
74310;BME280;62722;51.142;17.052;2022-12-10T06:23:49;99515.66;;;0.78;92.11
74310;BME280;62722;51.142;17.052;2022-12-10T06:26:19;99516.69;;;0.74;92.64
74310;BME280;62722;51.142;17.052;2022-12-10T06:28:48;99521.81;;;0.76;92.39
74310;BME280;62722;51.142;17.052;2022-12-10T06:31:16;99525.88;;;0.83;92.81
74310;BME280;62722;51.142;17.052;2022-12-10T06:33:45;99518.22;;;0.80;92.47
74310;BME280;62722;51.142;17.052;2022-12-10T06:36:15;99529.56;;;0.77;92.17
74310;BME280;62722;51.142;17.052;2022-12-10T06:38:43;99522.88;;;0.70;92.52
74310;BME280;62722;51.142;17.052;2022-12-10T06:41:12;99529.78;;;0.71;92.33
74310;BME280;62722;51.142;17.052;2022-12-10T06:43:39;99524.53;;;0.73;92.59
74310;BME280;62722;51.142;17.052;2022-12-10T06:46:08;99523.34;;;0.81;92.75
74310;BME280;62722;51.142;17.052;2022-12-10T06:48:35;99511.28;;;0.80;92.40
74310;BME280;62722;51.142;17.052;2022-12-10T06:51:05;99519.28;;;0.74;92.83
74310;BME280;62722;51.142;17.052;2022-12-10T06:53:33;99519.41;;;0.71;92.46
74310;BME280;62722;51.142;17.052;2022-12-10T06:56:02;99527.34;;;0.67;93.14
74310;BME280;62722;51.142;17.052;2022-12-10T06:58:30;99534.31;;;0.66;92.84
74310;BME280;62722;51.142;17.052;2022-12-10T07:01:02;99540.28;;;0.68;92.50
74310;BME280;62722;51.142;17.052;2022-12-10T07:03:29;99541.38;;;0.63;92.18
74310;BME280;62722;51.142;17.052;2022-12-10T07:05:57;99553.78;;;0.55;93.03
74310;BME280;62722;51.142;17.052;2022-12-10T07:08:26;99538.06;;;0.59;92.38
74310;BME280;62722;51.142;17.052;2022-12-10T07:10:54;99548.44;;;0.59;92.24
74310;BME280;62722;51.142;17.052;2022-12-10T07:13:21;99540.66;;;0.59;91.90
74310;BME280;62722;51.142;17.052;2022-12-10T07:15:49;99557.91;;;0.60;92.04
74310;BME280;62722;51.142;17.052;2022-12-10T07:18:16;99560.44;;;0.62;92.46
74310;BME280;62722;51.142;17.052;2022-12-10T07:20:44;99557.56;;;0.69;92.14
74310;BME280;62722;51.142;17.052;2022-12-10T07:23:11;99561.56;;;0.78;92.35
74310;BME280;62722;51.142;17.052;2022-12-10T07:25:39;99556.31;;;0.79;91.22
74310;BME280;62722;51.142;17.052;2022-12-10T07:28:06;99551.28;;;0.75;91.51
74310;BME280;62722;51.142;17.052;2022-12-10T07:30:34;99554.75;;;0.75;91.49
74310;BME280;62722;51.142;17.052;2022-12-10T07:33:01;99555.47;;;0.79;91.52
74310;BME280;62722;51.142;17.052;2022-12-10T07:35:28;99550.44;;;0.74;91.30
74310;BME280;62722;51.142;17.052;2022-12-10T07:37:55;99552.03;;;0.78;91.29
74310;BME280;62722;51.142;17.052;2022-12-10T07:40:23;99549.44;;;0.78;91.39
74310;BME280;62722;51.142;17.052;2022-12-10T07:42:51;99553.00;;;0.76;91.11
74310;BME280;62722;51.142;17.052;2022-12-10T07:45:19;99553.16;;;0.71;90.80
74310;BME280;62722;51.142;17.052;2022-12-10T07:47:46;99555.63;;;0.74;90.64
74310;BME280;62722;51.142;17.052;2022-12-10T07:50:13;99560.00;;;0.74;90.66
74310;BME280;62722;51.142;17.052;2022-12-10T07:52:41;99561.81;;;0.72;90.89
74310;BME280;62722;51.142;17.052;2022-12-10T07:55:08;99560.34;;;0.65;91.56
74310;BME280;62722;51.142;17.052;2022-12-10T07:57:35;99562.88;;;0.66;91.75
74310;BME280;62722;51.142;17.052;2022-12-10T08:00:05;99564.69;;;0.64;91.40
74310;BME280;62722;51.142;17.052;2022-12-10T08:02:32;99565.69;;;0.60;91.36
74310;BME280;62722;51.142;17.052;2022-12-10T08:04:59;99574.22;;;0.64;91.12
74310;BME280;62722;51.142;17.052;2022-12-10T08:07:27;99575.03;;;0.66;91.39
74310;BME280;62722;51.142;17.052;2022-12-10T08:09:55;99583.66;;;0.66;91.32
74310;BME280;62722;51.142;17.052;2022-12-10T08:12:22;99580.84;;;0.72;91.87
74310;BME280;62722;51.142;17.052;2022-12-10T08:14:49;99587.03;;;0.68;91.62
74310;BME280;62722;51.142;17.052;2022-12-10T08:17:18;99580.25;;;0.64;91.53
74310;BME280;62722;51.142;17.052;2022-12-10T08:19:45;99587.94;;;0.67;91.83
74310;BME280;62722;51.142;17.052;2022-12-10T08:22:12;99590.53;;;0.67;91.53
74310;BME280;62722;51.142;17.052;2022-12-10T08:24:39;99586.31;;;0.65;91.80
74310;BME280;62722;51.142;17.052;2022-12-10T08:27:07;99583.66;;;0.66;91.54
74310;BME280;62722;51.142;17.052;2022-12-10T08:29:34;99581.88;;;0.67;91.73
74310;BME280;62722;51.142;17.052;2022-12-10T08:32:02;99583.69;;;0.65;91.99
74310;BME280;62722;51.142;17.052;2022-12-10T08:34:30;99584.41;;;0.70;91.84
74310;BME280;62722;51.142;17.052;2022-12-10T08:36:57;99591.38;;;0.68;91.83
74310;BME280;62722;51.142;17.052;2022-12-10T08:39:25;99585.28;;;0.69;91.42
74310;BME280;62722;51.142;17.052;2022-12-10T08:41:52;99586.16;;;0.69;91.88
74310;BME280;62722;51.142;17.052;2022-12-10T08:44:19;99590.31;;;0.73;91.71
74310;BME280;62722;51.142;17.052;2022-12-10T08:46:46;99586.19;;;0.68;91.35
74310;BME280;62722;51.142;17.052;2022-12-10T08:49:13;99588.66;;;0.71;91.32
74310;BME280;62722;51.142;17.052;2022-12-10T08:51:42;99590.66;;;0.64;91.12
74310;BME280;62722;51.142;17.052;2022-12-10T08:54:09;99600.78;;;0.70;91.72
74310;BME280;62722;51.142;17.052;2022-12-10T08:56:37;99594.06;;;0.66;91.45
74310;BME280;62722;51.142;17.052;2022-12-10T08:59:05;99589.63;;;0.68;91.83
74310;BME280;62722;51.142;17.052;2022-12-10T09:01:33;99595.59;;;0.70;91.40
74310;BME280;62722;51.142;17.052;2022-12-10T09:04:00;99588.75;;;0.69;91.44
74310;BME280;62722;51.142;17.052;2022-12-10T09:06:27;99600.78;;;0.70;91.65
74310;BME280;62722;51.142;17.052;2022-12-10T09:08:57;99591.44;;;0.66;91.63
74310;BME280;62722;51.142;17.052;2022-12-10T09:11:26;99590.53;;;0.67;91.50
74310;BME280;62722;51.142;17.052;2022-12-10T09:13:54;99585.34;;;0.67;91.51
74310;BME280;62722;51.142;17.052;2022-12-10T09:16:28;99586.91;;;0.71;91.42
74310;BME280;62722;51.142;17.052;2022-12-10T09:18:55;99593.69;;;0.75;91.25
74310;BME280;62722;51.142;17.052;2022-12-10T09:21:22;99590.31;;;0.73;91.46
74310;BME280;62722;51.142;17.052;2022-12-10T09:23:50;99584.03;;;0.79;92.16
74310;BME280;62722;51.142;17.052;2022-12-10T09:26:19;99583.88;;;0.83;91.31
74310;BME280;62722;51.142;17.052;2022-12-10T09:28:47;99584.56;;;0.88;90.88
74310;BME280;62722;51.142;17.052;2022-12-10T09:31:17;99584.63;;;0.87;90.95
74310;BME280;62722;51.142;17.052;2022-12-10T09:33:45;99586.31;;;0.88;91.37
74310;BME280;62722;51.142;17.052;2022-12-10T09:36:13;99586.25;;;0.89;91.30
74310;BME280;62722;51.142;17.052;2022-12-10T09:38:43;99592.66;;;0.81;90.88
74310;BME280;62722;51.142;17.052;2022-12-10T09:41:35;99584.72;;;0.84;91.08
74310;BME280;62722;51.142;17.052;2022-12-10T09:44:10;99581.59;;;0.74;91.12
74310;BME280;62722;51.142;17.052;2022-12-10T09:46:47;99583.84;;;0.85;91.52
74310;BME280;62722;51.142;17.052;2022-12-10T09:49:23;99602.19;;;0.80;91.00
74310;BME280;62722;51.142;17.052;2022-12-10T09:51:54;99590.78;;;0.84;91.49
74310;BME280;62722;51.142;17.052;2022-12-10T09:54:24;99585.47;;;0.87;90.88
74310;BME280;62722;51.142;17.052;2022-12-10T09:56:55;99572.53;;;0.86;90.97
74310;BME280;62722;51.142;17.052;2022-12-10T09:59:25;99578.13;;;0.98;91.17
74310;BME280;62722;51.142;17.052;2022-12-10T10:02:03;99576.84;;;1.09;90.47
74310;BME280;62722;51.142;17.052;2022-12-10T10:04:30;99582.06;;;1.09;91.05
74310;BME280;62722;51.142;17.052;2022-12-10T10:06:58;99560.50;;;1.07;90.53
74310;BME280;62722;51.142;17.052;2022-12-10T10:09:25;99556.91;;;1.09;90.69
74310;BME280;62722;51.142;17.052;2022-12-10T10:11:55;99552.78;;;1.04;90.28
74310;BME280;62722;51.142;17.052;2022-12-10T10:14:25;99544.09;;;1.05;90.19
74310;BME280;62722;51.142;17.052;2022-12-10T10:16:56;99549.16;;;1.08;90.88
74310;BME280;62722;51.142;17.052;2022-12-10T10:19:26;99556.78;;;1.12;89.82
74310;BME280;62722;51.142;17.052;2022-12-10T10:21:54;99551.34;;;0.96;89.60
74310;BME280;62722;51.142;17.052;2022-12-10T10:24:24;99544.47;;;0.95;89.89
74310;BME280;62722;51.142;17.052;2022-12-10T10:26:57;99540.94;;;0.96;90.34
74310;BME280;62722;51.142;17.052;2022-12-10T10:29:24;99541.19;;;0.90;90.53
74310;BME280;62722;51.142;17.052;2022-12-10T10:32:11;99540.63;;;0.82;91.21
74310;BME280;62722;51.142;17.052;2022-12-10T10:34:39;99542.31;;;0.83;91.10
74310;BME280;62722;51.142;17.052;2022-12-10T10:37:11;99548.28;;;0.85;90.67
74310;BME280;62722;51.142;17.052;2022-12-10T10:39:47;99551.81;;;0.84;90.72
74310;BME280;62722;51.142;17.052;2022-12-10T10:42:27;99545.69;;;0.85;90.18
74310;BME280;62722;51.142;17.052;2022-12-10T10:44:55;99537.81;;;0.88;90.06
74310;BME280;62722;51.142;17.052;2022-12-10T10:47:28;99545.69;;;0.85;90.26
74310;BME280;62722;51.142;17.052;2022-12-10T10:49:56;99536.22;;;0.84;90.63
74310;BME280;62722;51.142;17.052;2022-12-10T10:52:28;99531.03;;;0.84;90.53
74310;BME280;62722;51.142;17.052;2022-12-10T10:54:55;99532.50;;;0.91;91.12
74310;BME280;62722;51.142;17.052;2022-12-10T10:57:26;99528.88;;;0.95;90.89
74310;BME280;62722;51.142;17.052;2022-12-10T10:59:56;99519.25;;;0.97;90.70
74310;BME280;62722;51.142;17.052;2022-12-10T11:02:34;99526.03;;;1.02;89.49
74310;BME280;62722;51.142;17.052;2022-12-10T11:05:07;99525.06;;;1.04;89.88
74310;BME280;62722;51.142;17.052;2022-12-10T11:07:39;99536.91;;;1.11;89.29
74310;BME280;62722;51.142;17.052;2022-12-10T11:10:15;99538.78;;;1.08;88.93
74310;BME280;62722;51.142;17.052;2022-12-10T11:12:46;99537.31;;;1.01;89.13
74310;BME280;62722;51.142;17.052;2022-12-10T11:15:32;99542.53;;;1.01;89.86
74310;BME280;62722;51.142;17.052;2022-12-10T11:18:01;99547.59;;;1.04;89.53
74310;BME280;62722;51.142;17.052;2022-12-10T11:20:30;99548.22;;;1.10;89.91
74310;BME280;62722;51.142;17.052;2022-12-10T11:23:01;99543.88;;;1.11;88.92
74310;BME280;62722;51.142;17.052;2022-12-10T11:25:43;99547.50;;;1.07;89.40
74310;BME280;62722;51.142;17.052;2022-12-10T11:28:27;99556.88;;;1.11;89.21
74310;BME280;62722;51.142;17.052;2022-12-10T11:31:20;99556.97;;;1.08;88.75
74310;BME280;62722;51.142;17.052;2022-12-10T11:33:56;99556.88;;;1.11;89.20
74310;BME280;62722;51.142;17.052;2022-12-10T11:36:32;99557.81;;;1.08;88.99
74310;BME280;62722;51.142;17.052;2022-12-10T11:39:10;99560.41;;;1.08;88.59
74310;BME280;62722;51.142;17.052;2022-12-10T11:41:46;99561.28;;;1.09;89.27
74310;BME280;62722;51.142;17.052;2022-12-10T11:44:23;99563.75;;;1.12;89.46
74310;BME280;62722;51.142;17.052;2022-12-10T11:47:06;99565.44;;;1.13;89.29
74310;BME280;62722;51.142;17.052;2022-12-10T11:49:44;99565.16;;;1.20;88.53
74310;BME280;62722;51.142;17.052;2022-12-10T11:52:19;99558.41;;;1.15;87.91
74310;BME280;62722;51.142;17.052;2022-12-10T11:55:02;99562.84;;;1.13;88.66
74310;BME280;62722;51.142;17.052;2022-12-10T11:57:43;99558.66;;;1.09;88.62
74310;BME280;62722;51.142;17.052;2022-12-10T12:00:18;99557.78;;;1.10;88.98
74310;BME280;62722;51.142;17.052;2022-12-10T12:02:58;99566.41;;;1.10;89.14
74310;BME280;62722;51.142;17.052;2022-12-10T12:05:45;99561.38;;;1.06;88.60
74310;BME280;62722;51.142;17.052;2022-12-10T12:08:19;99567.03;;;1.17;88.60
74310;BME280;62722;51.142;17.052;2022-12-10T12:11:03;99568.91;;;1.13;88.54
74310;BME280;62722;51.142;17.052;2022-12-10T12:13:36;99555.09;;;1.11;88.94
74310;BME280;62722;51.142;17.052;2022-12-10T12:16:13;99553.22;;;1.15;88.90
74310;BME280;62722;51.142;17.052;2022-12-10T12:18:46;99553.31;;;1.13;88.94
74310;BME280;62722;51.142;17.052;2022-12-10T12:21:15;99559.41;;;1.12;88.75
74310;BME280;62722;51.142;17.052;2022-12-10T12:23:49;99561.28;;;1.09;88.80
74310;BME280;62722;51.142;17.052;2022-12-10T12:26:21;99564.75;;;1.08;89.18
74310;BME280;62722;51.142;17.052;2022-12-10T12:28:56;99563.09;;;1.07;89.49
74310;BME280;62722;51.142;17.052;2022-12-10T12:31:35;99560.28;;;1.11;88.74
74310;BME280;62722;51.142;17.052;2022-12-10T12:34:10;99550.03;;;1.08;88.54
74310;BME280;62722;51.142;17.052;2022-12-10T12:36:41;99541.44;;;1.06;89.13
74310;BME280;62722;51.142;17.052;2022-12-10T12:39:15;99551.16;;;1.01;89.29
74310;BME280;62722;51.142;17.052;2022-12-10T12:41:49;99540.59;;;1.06;89.68
74310;BME280;62722;51.142;17.052;2022-12-10T12:44:24;99552.63;;;1.08;89.03
74310;BME280;62722;51.142;17.052;2022-12-10T12:47:01;99540.47;;;1.09;89.02
74310;BME280;62722;51.142;17.052;2022-12-10T12:49:31;99545.69;;;1.09;89.31
74310;BME280;62722;51.142;17.052;2022-12-10T12:52:01;99545.75;;;1.07;88.89
74310;BME280;62722;51.142;17.052;2022-12-10T12:54:29;99545.81;;;1.06;88.86
74310;BME280;62722;51.142;17.052;2022-12-10T12:57:01;99554.38;;;1.08;89.21
74310;BME280;62722;51.142;17.052;2022-12-10T12:59:36;99556.91;;;1.09;89.43
74310;BME280;62722;51.142;17.052;2022-12-10T13:02:20;99548.09;;;1.13;89.57
74310;BME280;62722;51.142;17.052;2022-12-10T13:04:50;99542.06;;;1.13;89.50
74310;BME280;62722;51.142;17.052;2022-12-10T13:07:33;99536.84;;;1.13;89.57
74310;BME280;62722;51.142;17.052;2022-12-10T13:10:23;99542.31;;;1.07;88.90
74310;BME280;62722;51.142;17.052;2022-12-10T13:13:06;99541.50;;;1.05;89.61
74310;BME280;62722;51.142;17.052;2022-12-10T13:15:35;99542.06;;;1.13;89.32
74310;BME280;62722;51.142;17.052;2022-12-10T13:18:23;99535.72;;;1.20;88.76
74310;BME280;62722;51.142;17.052;2022-12-10T13:21:28;99543.25;;;1.26;88.61